sensor_id;sensor_type;location;lat;lon;timestamp;temperature;humidity
29321;DHT22;16323;51.130;6.612;2022-10-23T00:00:12;20.70;98.10
29321;DHT22;16323;51.130;6.612;2022-10-23T00:02:38;20.70;98.10
29321;DHT22;16323;51.130;6.612;2022-10-23T00:05:05;20.70;98.20
29321;DHT22;16323;51.130;6.612;2022-10-23T00:07:32;20.70;98.20
29321;DHT22;16323;51.130;6.612;2022-10-23T00:09:59;20.70;98.10
29321;DHT22;16323;51.130;6.612;2022-10-23T00:12:26;20.70;98.20
29321;DHT22;16323;51.130;6.612;2022-10-23T00:14:54;20.70;98.20
29321;DHT22;16323;51.130;6.612;2022-10-23T00:17:21;20.70;98.10
29321;DHT22;16323;51.130;6.612;2022-10-23T00:19:48;20.70;98.00
29321;DHT22;16323;51.130;6.612;2022-10-23T00:22:15;20.70;98.00
29321;DHT22;16323;51.130;6.612;2022-10-23T00:24:42;20.70;98.10
29321;DHT22;16323;51.130;6.612;2022-10-23T00:27:09;20.70;98.10
29321;DHT22;16323;51.130;6.612;2022-10-23T00:29:35;20.70;98.00
29321;DHT22;16323;51.130;6.612;2022-10-23T00:32:04;20.70;98.00
29321;DHT22;16323;51.130;6.612;2022-10-23T00:34:30;20.70;98.00
29321;DHT22;16323;51.130;6.612;2022-10-23T00:36:57;20.70;97.90
29321;DHT22;16323;51.130;6.612;2022-10-23T00:39:24;20.70;97.80
29321;DHT22;16323;51.130;6.612;2022-10-23T00:41:51;20.70;97.70
29321;DHT22;16323;51.130;6.612;2022-10-23T00:47:23;20.70;97.90
29321;DHT22;16323;51.130;6.612;2022-10-23T00:49:50;20.70;98.10
29321;DHT22;16323;51.130;6.612;2022-10-23T00:52:16;20.70;97.90
29321;DHT22;16323;51.130;6.612;2022-10-23T00:54:43;20.70;98.10
29321;DHT22;16323;51.130;6.612;2022-10-23T00:57:12;20.70;98.00
29321;DHT22;16323;51.130;6.612;2022-10-23T00:59:40;20.70;98.00
29321;DHT22;16323;51.130;6.612;2022-10-23T01:02:07;20.70;98.00
29321;DHT22;16323;51.130;6.612;2022-10-23T01:04:36;20.70;98.10
29321;DHT22;16323;51.130;6.612;2022-10-23T01:07:10;20.70;98.00
29321;DHT22;16323;51.130;6.612;2022-10-23T01:09:45;20.70;98.10
29321;DHT22;16323;51.130;6.612;2022-10-23T01:12:18;20.70;98.00
29321;DHT22;16323;51.130;6.612;2022-10-23T01:14:55;20.70;97.90
29321;DHT22;16323;51.130;6.612;2022-10-23T01:17:28;20.70;97.80
29321;DHT22;16323;51.130;6.612;2022-10-23T01:20:06;20.70;98.10
29321;DHT22;16323;51.130;6.612;2022-10-23T01:22:48;20.70;97.80
29321;DHT22;16323;51.130;6.612;2022-10-23T01:25:22;20.70;97.80
29321;DHT22;16323;51.130;6.612;2022-10-23T01:28:01;20.70;97.80
29321;DHT22;16323;51.130;6.612;2022-10-23T01:30:29;20.70;97.80
29321;DHT22;16323;51.130;6.612;2022-10-23T01:33:02;20.70;97.70
29321;DHT22;16323;51.130;6.612;2022-10-23T01:35:34;20.70;97.70
29321;DHT22;16323;51.130;6.612;2022-10-23T01:38:06;20.70;97.60
29321;DHT22;16323;51.130;6.612;2022-10-23T01:40:41;20.70;97.50
29321;DHT22;16323;51.130;6.612;2022-10-23T01:43:13;20.70;97.70
29321;DHT22;16323;51.130;6.612;2022-10-23T01:45:44;20.70;97.70
29321;DHT22;16323;51.130;6.612;2022-10-23T01:48:17;20.70;97.50
29321;DHT22;16323;51.130;6.612;2022-10-23T01:50:45;20.70;97.50
29321;DHT22;16323;51.130;6.612;2022-10-23T01:53:12;20.70;97.60
29321;DHT22;16323;51.130;6.612;2022-10-23T01:55:40;20.70;97.70
29321;DHT22;16323;51.130;6.612;2022-10-23T01:58:10;20.70;97.60
29321;DHT22;16323;51.130;6.612;2022-10-23T02:00:39;20.70;97.80
29321;DHT22;16323;51.130;6.612;2022-10-23T02:03:07;20.70;97.70
29321;DHT22;16323;51.130;6.612;2022-10-23T02:05:35;20.70;97.60
29321;DHT22;16323;51.130;6.612;2022-10-23T02:08:04;20.70;97.60
29321;DHT22;16323;51.130;6.612;2022-10-23T02:10:36;20.70;97.50
29321;DHT22;16323;51.130;6.612;2022-10-23T02:13:07;20.70;97.40
29321;DHT22;16323;51.130;6.612;2022-10-23T02:15:43;20.70;97.40
29321;DHT22;16323;51.130;6.612;2022-10-23T02:18:21;20.70;97.50
29321;DHT22;16323;51.130;6.612;2022-10-23T02:20:54;20.70;97.50
29321;DHT22;16323;51.130;6.612;2022-10-23T02:23:28;20.70;97.50
29321;DHT22;16323;51.130;6.612;2022-10-23T02:26:01;20.70;97.50
29321;DHT22;16323;51.130;6.612;2022-10-23T02:28:33;20.70;97.20
29321;DHT22;16323;51.130;6.612;2022-10-23T02:31:04;20.70;97.20
29321;DHT22;16323;51.130;6.612;2022-10-23T02:33:34;20.70;97.30
29321;DHT22;16323;51.130;6.612;2022-10-23T02:36:01;20.70;97.30
29321;DHT22;16323;51.130;6.612;2022-10-23T02:38:31;20.70;97.10
29321;DHT22;16323;51.130;6.612;2022-10-23T02:41:12;20.70;97.20
29321;DHT22;16323;51.130;6.612;2022-10-23T02:43:49;20.70;97.00
29321;DHT22;16323;51.130;6.612;2022-10-23T02:46:24;20.70;97.20
29321;DHT22;16323;51.130;6.612;2022-10-23T02:48:59;20.70;97.10
29321;DHT22;16323;51.130;6.612;2022-10-23T02:51:32;20.60;97.30
29321;DHT22;16323;51.130;6.612;2022-10-23T02:54:04;20.60;97.30
29321;DHT22;16323;51.130;6.612;2022-10-23T02:56:38;20.70;97.50
29321;DHT22;16323;51.130;6.612;2022-10-23T02:59:09;20.70;97.40
29321;DHT22;16323;51.130;6.612;2022-10-23T03:01:48;20.70;97.30
29321;DHT22;16323;51.130;6.612;2022-10-23T03:04:17;20.70;97.10
29321;DHT22;16323;51.130;6.612;2022-10-23T03:06:45;20.70;97.20
29321;DHT22;16323;51.130;6.612;2022-10-23T03:09:12;20.70;97.20
29321;DHT22;16323;51.130;6.612;2022-10-23T03:11:38;20.70;97.20
29321;DHT22;16323;51.130;6.612;2022-10-23T03:14:05;20.70;97.10
29321;DHT22;16323;51.130;6.612;2022-10-23T03:16:32;20.70;97.00
29321;DHT22;16323;51.130;6.612;2022-10-23T03:19:00;20.70;97.10
29321;DHT22;16323;51.130;6.612;2022-10-23T03:21:27;20.70;97.00
29321;DHT22;16323;51.130;6.612;2022-10-23T03:23:54;20.70;96.80
29321;DHT22;16323;51.130;6.612;2022-10-23T03:26:21;20.70;96.90
29321;DHT22;16323;51.130;6.612;2022-10-23T03:28:47;20.70;97.00
29321;DHT22;16323;51.130;6.612;2022-10-23T03:31:14;20.70;96.90
29321;DHT22;16323;51.130;6.612;2022-10-23T03:33:41;20.70;96.90
29321;DHT22;16323;51.130;6.612;2022-10-23T03:36:09;20.70;96.80
29321;DHT22;16323;51.130;6.612;2022-10-23T03:38:36;20.60;96.80
29321;DHT22;16323;51.130;6.612;2022-10-23T03:41:03;20.70;96.70
29321;DHT22;16323;51.130;6.612;2022-10-23T03:43:30;20.70;97.00
29321;DHT22;16323;51.130;6.612;2022-10-23T03:45:57;20.70;97.00
29321;DHT22;16323;51.130;6.612;2022-10-23T03:48:25;20.70;97.00
29321;DHT22;16323;51.130;6.612;2022-10-23T03:50:54;20.70;97.00
29321;DHT22;16323;51.130;6.612;2022-10-23T03:53:22;20.70;97.00
29321;DHT22;16323;51.130;6.612;2022-10-23T03:55:49;20.70;96.90
29321;DHT22;16323;51.130;6.612;2022-10-23T03:58:15;20.70;96.80
29321;DHT22;16323;51.130;6.612;2022-10-23T04:00:42;20.70;96.90
29321;DHT22;16323;51.130;6.612;2022-10-23T04:03:09;20.70;97.00
29321;DHT22;16323;51.130;6.612;2022-10-23T04:05:36;20.70;96.80
29321;DHT22;16323;51.130;6.612;2022-10-23T04:08:03;20.70;96.80
29321;DHT22;16323;51.130;6.612;2022-10-23T04:10:31;20.70;96.90
29321;DHT22;16323;51.130;6.612;2022-10-23T04:12:58;20.70;96.80
29321;DHT22;16323;51.130;6.612;2022-10-23T04:15:25;20.70;96.60
29321;DHT22;16323;51.130;6.612;2022-10-23T04:17:52;20.70;96.50
29321;DHT22;16323;51.130;6.612;2022-10-23T04:20:19;20.70;96.60
29321;DHT22;16323;51.130;6.612;2022-10-23T04:22:45;20.60;96.50
29321;DHT22;16323;51.130;6.612;2022-10-23T04:25:12;20.70;96.70
29321;DHT22;16323;51.130;6.612;2022-10-23T04:27:42;20.70;96.60
29321;DHT22;16323;51.130;6.612;2022-10-23T04:30:10;20.60;96.50
29321;DHT22;16323;51.130;6.612;2022-10-23T04:32:37;20.60;96.40
29321;DHT22;16323;51.130;6.612;2022-10-23T04:35:04;20.60;96.60
29321;DHT22;16323;51.130;6.612;2022-10-23T04:37:31;20.60;96.40
29321;DHT22;16323;51.130;6.612;2022-10-23T04:39:58;20.60;96.50
29321;DHT22;16323;51.130;6.612;2022-10-23T04:42:25;20.70;96.50
29321;DHT22;16323;51.130;6.612;2022-10-23T04:44:53;20.70;96.70
29321;DHT22;16323;51.130;6.612;2022-10-23T04:47:20;20.70;96.70
29321;DHT22;16323;51.130;6.612;2022-10-23T04:49:46;20.70;96.60
29321;DHT22;16323;51.130;6.612;2022-10-23T04:52:14;20.70;96.40
29321;DHT22;16323;51.130;6.612;2022-10-23T04:54:40;20.70;96.50
29321;DHT22;16323;51.130;6.612;2022-10-23T04:57:07;20.70;96.50
29321;DHT22;16323;51.130;6.612;2022-10-23T04:59:34;20.70;96.60
29321;DHT22;16323;51.130;6.612;2022-10-23T05:02:02;20.70;96.50
29321;DHT22;16323;51.130;6.612;2022-10-23T05:04:29;20.70;96.50
29321;DHT22;16323;51.130;6.612;2022-10-23T05:06:55;20.70;96.40
29321;DHT22;16323;51.130;6.612;2022-10-23T05:09:22;20.70;96.50
29321;DHT22;16323;51.130;6.612;2022-10-23T05:11:49;20.70;96.40
29321;DHT22;16323;51.130;6.612;2022-10-23T05:14:16;20.70;96.60
29321;DHT22;16323;51.130;6.612;2022-10-23T05:16:45;20.70;96.20
29321;DHT22;16323;51.130;6.612;2022-10-23T05:19:19;20.70;96.30
29321;DHT22;16323;51.130;6.612;2022-10-23T05:21:47;20.70;96.10
29321;DHT22;16323;51.130;6.612;2022-10-23T05:24:15;20.70;96.10
29321;DHT22;16323;51.130;6.612;2022-10-23T05:26:42;20.70;96.10
29321;DHT22;16323;51.130;6.612;2022-10-23T05:29:09;20.70;96.10
29321;DHT22;16323;51.130;6.612;2022-10-23T05:31:36;20.70;96.30
29321;DHT22;16323;51.130;6.612;2022-10-23T05:34:02;20.60;96.10
29321;DHT22;16323;51.130;6.612;2022-10-23T05:36:33;20.70;96.10
29321;DHT22;16323;51.130;6.612;2022-10-23T05:38:59;20.60;96.30
29321;DHT22;16323;51.130;6.612;2022-10-23T05:41:27;20.70;96.40
29321;DHT22;16323;51.130;6.612;2022-10-23T05:43:54;20.70;96.30
29321;DHT22;16323;51.130;6.612;2022-10-23T05:46:21;20.70;96.10
29321;DHT22;16323;51.130;6.612;2022-10-23T05:48:49;20.70;96.20
29321;DHT22;16323;51.130;6.612;2022-10-23T05:51:17;20.70;96.10
29321;DHT22;16323;51.130;6.612;2022-10-23T05:53:48;20.70;96.00
29321;DHT22;16323;51.130;6.612;2022-10-23T05:56:14;20.70;96.00
29321;DHT22;16323;51.130;6.612;2022-10-23T05:58:41;20.70;96.00
29321;DHT22;16323;51.130;6.612;2022-10-23T06:01:10;20.70;96.10
29321;DHT22;16323;51.130;6.612;2022-10-23T06:03:38;20.70;95.90
29321;DHT22;16323;51.130;6.612;2022-10-23T06:06:06;20.70;95.90
29321;DHT22;16323;51.130;6.612;2022-10-23T06:08:33;20.70;95.90
29321;DHT22;16323;51.130;6.612;2022-10-23T06:11:06;20.70;95.80
29321;DHT22;16323;51.130;6.612;2022-10-23T06:13:33;20.60;95.70
29321;DHT22;16323;51.130;6.612;2022-10-23T06:16:07;20.60;95.60
29321;DHT22;16323;51.130;6.612;2022-10-23T06:18:35;20.60;95.70
29321;DHT22;16323;51.130;6.612;2022-10-23T06:21:02;20.60;95.80
29321;DHT22;16323;51.130;6.612;2022-10-23T06:23:29;20.60;95.80
29321;DHT22;16323;51.130;6.612;2022-10-23T06:25:56;20.60;96.00
29321;DHT22;16323;51.130;6.612;2022-10-23T06:28:25;20.60;95.80
29321;DHT22;16323;51.130;6.612;2022-10-23T06:30:52;20.60;95.80
29321;DHT22;16323;51.130;6.612;2022-10-23T06:33:18;20.60;95.90
29321;DHT22;16323;51.130;6.612;2022-10-23T06:35:45;20.60;96.10
29321;DHT22;16323;51.130;6.612;2022-10-23T06:38:12;20.60;96.20
29321;DHT22;16323;51.130;6.612;2022-10-23T06:40:39;20.60;96.00
29321;DHT22;16323;51.130;6.612;2022-10-23T06:43:06;20.60;96.20
29321;DHT22;16323;51.130;6.612;2022-10-23T06:45:35;20.60;96.10
29321;DHT22;16323;51.130;6.612;2022-10-23T06:48:02;20.60;96.10
29321;DHT22;16323;51.130;6.612;2022-10-23T06:50:29;20.60;96.20
29321;DHT22;16323;51.130;6.612;2022-10-23T06:52:56;20.60;96.20
29321;DHT22;16323;51.130;6.612;2022-10-23T06:55:23;20.60;96.10
29321;DHT22;16323;51.130;6.612;2022-10-23T06:57:49;20.60;96.20
29321;DHT22;16323;51.130;6.612;2022-10-23T07:00:16;20.60;96.10
29321;DHT22;16323;51.130;6.612;2022-10-23T07:02:44;20.60;96.10
29321;DHT22;16323;51.130;6.612;2022-10-23T07:05:11;20.70;96.10
29321;DHT22;16323;51.130;6.612;2022-10-23T07:07:38;20.60;96.00
29321;DHT22;16323;51.130;6.612;2022-10-23T07:10:05;20.60;95.90
29321;DHT22;16323;51.130;6.612;2022-10-23T07:12:32;20.60;96.00
29321;DHT22;16323;51.130;6.612;2022-10-23T07:14:59;20.60;96.00
29321;DHT22;16323;51.130;6.612;2022-10-23T07:17:27;20.70;95.90
29321;DHT22;16323;51.130;6.612;2022-10-23T07:19:55;20.70;95.90
29321;DHT22;16323;51.130;6.612;2022-10-23T07:22:22;20.60;95.90
29321;DHT22;16323;51.130;6.612;2022-10-23T07:24:49;20.60;95.90
29321;DHT22;16323;51.130;6.612;2022-10-23T07:27:15;20.60;95.80
29321;DHT22;16323;51.130;6.612;2022-10-23T07:29:42;20.60;96.00
29321;DHT22;16323;51.130;6.612;2022-10-23T07:32:09;20.60;96.00
29321;DHT22;16323;51.130;6.612;2022-10-23T07:34:36;20.60;95.80
29321;DHT22;16323;51.130;6.612;2022-10-23T07:37:04;20.60;96.00
29321;DHT22;16323;51.130;6.612;2022-10-23T07:39:31;20.60;95.80
29321;DHT22;16323;51.130;6.612;2022-10-23T07:41:57;20.60;96.10
29321;DHT22;16323;51.130;6.612;2022-10-23T07:44:24;20.60;96.10
29321;DHT22;16323;51.130;6.612;2022-10-23T07:46:51;20.60;96.00
29321;DHT22;16323;51.130;6.612;2022-10-23T07:49:18;20.60;95.80
29321;DHT22;16323;51.130;6.612;2022-10-23T07:51:45;20.60;96.00
29321;DHT22;16323;51.130;6.612;2022-10-23T07:54:13;20.60;95.40
29321;DHT22;16323;51.130;6.612;2022-10-23T07:56:40;20.70;95.80
29321;DHT22;16323;51.130;6.612;2022-10-23T07:59:09;20.70;95.40
29321;DHT22;16323;51.130;6.612;2022-10-23T08:01:37;20.70;95.40
29321;DHT22;16323;51.130;6.612;2022-10-23T08:04:04;20.70;95.40
29321;DHT22;16323;51.130;6.612;2022-10-23T08:06:32;20.70;95.50
29321;DHT22;16323;51.130;6.612;2022-10-23T08:09:00;20.70;95.40
29321;DHT22;16323;51.130;6.612;2022-10-23T08:11:28;20.70;95.30
29321;DHT22;16323;51.130;6.612;2022-10-23T08:14:00;20.60;95.20
29321;DHT22;16323;51.130;6.612;2022-10-23T08:16:29;20.70;95.20
29321;DHT22;16323;51.130;6.612;2022-10-23T08:18:56;20.70;95.30
29321;DHT22;16323;51.130;6.612;2022-10-23T08:21:29;20.70;94.80
29321;DHT22;16323;51.130;6.612;2022-10-23T08:23:57;20.70;94.90
29321;DHT22;16323;51.130;6.612;2022-10-23T08:26:26;20.70;94.30
29321;DHT22;16323;51.130;6.612;2022-10-23T08:28:57;20.70;94.30
29321;DHT22;16323;51.130;6.612;2022-10-23T08:31:24;20.70;94.30
29321;DHT22;16323;51.130;6.612;2022-10-23T08:33:53;20.70;94.30
29321;DHT22;16323;51.130;6.612;2022-10-23T08:36:23;20.70;94.30
29321;DHT22;16323;51.130;6.612;2022-10-23T08:38:51;20.70;94.20
29321;DHT22;16323;51.130;6.612;2022-10-23T08:41:24;20.70;94.10
29321;DHT22;16323;51.130;6.612;2022-10-23T08:43:58;20.70;94.00
29321;DHT22;16323;51.130;6.612;2022-10-23T08:46:30;20.70;93.80
29321;DHT22;16323;51.130;6.612;2022-10-23T08:49:08;20.70;93.70
29321;DHT22;16323;51.130;6.612;2022-10-23T08:51:41;20.70;93.70
29321;DHT22;16323;51.130;6.612;2022-10-23T08:54:14;20.70;93.80
29321;DHT22;16323;51.130;6.612;2022-10-23T08:56:48;20.70;93.70
29321;DHT22;16323;51.130;6.612;2022-10-23T08:59:21;20.70;93.70
29321;DHT22;16323;51.130;6.612;2022-10-23T09:02:07;20.70;93.70
29321;DHT22;16323;51.130;6.612;2022-10-23T09:04:36;20.70;93.70
29321;DHT22;16323;51.130;6.612;2022-10-23T09:07:07;20.70;93.80
29321;DHT22;16323;51.130;6.612;2022-10-23T09:09:53;20.70;93.70
29321;DHT22;16323;51.130;6.612;2022-10-23T09:12:22;20.70;93.80
29321;DHT22;16323;51.130;6.612;2022-10-23T09:15:02;20.70;93.80
29321;DHT22;16323;51.130;6.612;2022-10-23T09:17:31;20.80;93.90
29321;DHT22;16323;51.130;6.612;2022-10-23T09:20:06;20.80;93.80
29321;DHT22;16323;51.130;6.612;2022-10-23T09:22:36;20.80;93.60
29321;DHT22;16323;51.130;6.612;2022-10-23T09:25:08;20.70;93.60
29321;DHT22;16323;51.130;6.612;2022-10-23T09:27:35;20.70;93.60
29321;DHT22;16323;51.130;6.612;2022-10-23T09:30:04;20.70;93.50
29321;DHT22;16323;51.130;6.612;2022-10-23T09:32:32;20.70;93.70
29321;DHT22;16323;51.130;6.612;2022-10-23T09:34:59;20.70;93.70
29321;DHT22;16323;51.130;6.612;2022-10-23T09:37:28;20.70;93.50
29321;DHT22;16323;51.130;6.612;2022-10-23T09:40:09;20.70;93.70
29321;DHT22;16323;51.130;6.612;2022-10-23T09:42:49;20.70;93.90
29321;DHT22;16323;51.130;6.612;2022-10-23T09:45:23;20.70;94.30
29321;DHT22;16323;51.130;6.612;2022-10-23T09:47:50;20.70;94.40
29321;DHT22;16323;51.130;6.612;2022-10-23T09:50:24;20.70;94.30
29321;DHT22;16323;51.130;6.612;2022-10-23T09:52:52;20.70;94.30
29321;DHT22;16323;51.130;6.612;2022-10-23T09:55:22;20.70;94.40
29321;DHT22;16323;51.130;6.612;2022-10-23T09:57:50;20.70;94.60
29321;DHT22;16323;51.130;6.612;2022-10-23T10:00:20;20.70;94.60
29321;DHT22;16323;51.130;6.612;2022-10-23T10:02:56;20.70;94.50
29321;DHT22;16323;51.130;6.612;2022-10-23T10:05:25;20.70;94.50
29321;DHT22;16323;51.130;6.612;2022-10-23T10:07:58;20.70;94.60
29321;DHT22;16323;51.130;6.612;2022-10-23T10:10:27;20.70;94.50
29321;DHT22;16323;51.130;6.612;2022-10-23T10:13:00;20.70;94.60
29321;DHT22;16323;51.130;6.612;2022-10-23T10:15:32;20.70;94.60
29321;DHT22;16323;51.130;6.612;2022-10-23T10:18:12;20.70;94.60
29321;DHT22;16323;51.130;6.612;2022-10-23T10:20:53;20.70;94.60
29321;DHT22;16323;51.130;6.612;2022-10-23T10:23:27;20.70;94.70
29321;DHT22;16323;51.130;6.612;2022-10-23T10:26:01;20.70;95.30
29321;DHT22;16323;51.130;6.612;2022-10-23T10:28:49;20.70;96.40
29321;DHT22;16323;51.130;6.612;2022-10-23T10:31:22;20.70;96.80
29321;DHT22;16323;51.130;6.612;2022-10-23T10:34:01;20.70;96.40
29321;DHT22;16323;51.130;6.612;2022-10-23T10:36:46;20.70;96.40
29321;DHT22;16323;51.130;6.612;2022-10-23T10:39:23;20.60;96.50
29321;DHT22;16323;51.130;6.612;2022-10-23T10:42:02;20.60;96.50
29321;DHT22;16323;51.130;6.612;2022-10-23T10:44:45;20.60;96.70
29321;DHT22;16323;51.130;6.612;2022-10-23T10:47:18;20.60;96.80
29321;DHT22;16323;51.130;6.612;2022-10-23T10:49:54;20.60;96.90
29321;DHT22;16323;51.130;6.612;2022-10-23T10:52:29;20.60;97.00
29321;DHT22;16323;51.130;6.612;2022-10-23T10:55:02;20.60;97.10
29321;DHT22;16323;51.130;6.612;2022-10-23T10:57:39;20.60;97.20
29321;DHT22;16323;51.130;6.612;2022-10-23T11:00:13;20.60;97.30
29321;DHT22;16323;51.130;6.612;2022-10-23T11:02:44;20.60;97.30
29321;DHT22;16323;51.130;6.612;2022-10-23T11:05:19;20.60;97.50
29321;DHT22;16323;51.130;6.612;2022-10-23T11:07:53;20.60;97.50
29321;DHT22;16323;51.130;6.612;2022-10-23T11:10:20;20.60;97.60
29321;DHT22;16323;51.130;6.612;2022-10-23T11:12:48;20.60;97.70
29321;DHT22;16323;51.130;6.612;2022-10-23T11:15:16;20.60;97.70
29321;DHT22;16323;51.130;6.612;2022-10-23T11:17:47;20.60;97.70
29321;DHT22;16323;51.130;6.612;2022-10-23T11:20:37;20.60;97.70
29321;DHT22;16323;51.130;6.612;2022-10-23T11:23:30;20.60;97.80
29321;DHT22;16323;51.130;6.612;2022-10-23T11:26:09;20.60;97.90
29321;DHT22;16323;51.130;6.612;2022-10-23T11:29:02;20.50;97.80
29321;DHT22;16323;51.130;6.612;2022-10-23T11:31:38;20.50;97.60
29321;DHT22;16323;51.130;6.612;2022-10-23T11:34:21;20.60;97.40
29321;DHT22;16323;51.130;6.612;2022-10-23T11:36:57;20.50;97.50
29321;DHT22;16323;51.130;6.612;2022-10-23T11:39:27;20.60;97.30
29321;DHT22;16323;51.130;6.612;2022-10-23T11:41:56;20.60;97.60
29321;DHT22;16323;51.130;6.612;2022-10-23T11:44:38;20.50;97.70
29321;DHT22;16323;51.130;6.612;2022-10-23T11:47:25;20.60;98.20
29321;DHT22;16323;51.130;6.612;2022-10-23T11:53:01;20.50;98.40
29321;DHT22;16323;51.130;6.612;2022-10-23T11:55:30;20.50;98.50
29321;DHT22;16323;51.130;6.612;2022-10-23T11:58:20;20.50;98.40
29321;DHT22;16323;51.130;6.612;2022-10-23T12:00:57;20.50;98.50
29321;DHT22;16323;51.130;6.612;2022-10-23T12:03:28;20.50;98.50
29321;DHT22;16323;51.130;6.612;2022-10-23T12:05:58;20.50;98.50
29321;DHT22;16323;51.130;6.612;2022-10-23T12:08:29;20.50;98.50
29321;DHT22;16323;51.130;6.612;2022-10-23T12:10:56;20.60;98.50
29321;DHT22;16323;51.130;6.612;2022-10-23T12:13:42;20.60;98.50
29321;DHT22;16323;51.130;6.612;2022-10-23T12:16:10;20.60;98.50
29321;DHT22;16323;51.130;6.612;2022-10-23T12:18:49;20.60;98.60
29321;DHT22;16323;51.130;6.612;2022-10-23T12:21:18;20.60;98.70
29321;DHT22;16323;51.130;6.612;2022-10-23T12:24:02;20.60;98.70
29321;DHT22;16323;51.130;6.612;2022-10-23T12:29:45;20.60;98.90
29321;DHT22;16323;51.130;6.612;2022-10-23T12:32:27;20.60;99.00
29321;DHT22;16323;51.130;6.612;2022-10-23T12:35:11;20.60;99.10
29321;DHT22;16323;51.130;6.612;2022-10-23T12:37:50;20.60;99.20
29321;DHT22;16323;51.130;6.612;2022-10-23T12:40:22;20.60;99.10
29321;DHT22;16323;51.130;6.612;2022-10-23T12:42:56;20.60;99.70
29321;DHT22;16323;51.130;6.612;2022-10-23T12:45:24;20.60;99.20
29321;DHT22;16323;51.130;6.612;2022-10-23T12:47:52;20.60;99.20
29321;DHT22;16323;51.130;6.612;2022-10-23T12:50:21;20.60;99.30
29321;DHT22;16323;51.130;6.612;2022-10-23T12:52:55;20.60;99.40
29321;DHT22;16323;51.130;6.612;2022-10-23T12:55:26;20.60;99.30
29321;DHT22;16323;51.130;6.612;2022-10-23T12:57:53;20.60;99.40
29321;DHT22;16323;51.130;6.612;2022-10-23T13:00:22;20.60;99.50
29321;DHT22;16323;51.130;6.612;2022-10-23T13:02:57;20.60;99.60
29321;DHT22;16323;51.130;6.612;2022-10-23T13:05:24;20.60;99.70
29321;DHT22;16323;51.130;6.612;2022-10-23T13:07:52;20.60;99.80
29321;DHT22;16323;51.130;6.612;2022-10-23T13:10:21;20.60;99.70
29321;DHT22;16323;51.130;6.612;2022-10-23T13:12:53;20.60;99.80
29321;DHT22;16323;51.130;6.612;2022-10-23T13:15:21;20.60;99.90
29321;DHT22;16323;51.130;6.612;2022-10-23T13:17:59;20.60;99.80
29321;DHT22;16323;51.130;6.612;2022-10-23T13:20:27;20.60;99.70
29321;DHT22;16323;51.130;6.612;2022-10-23T13:22:58;20.60;99.60
29321;DHT22;16323;51.130;6.612;2022-10-23T13:25:27;20.60;99.60
29321;DHT22;16323;51.130;6.612;2022-10-23T13:28:12;20.60;99.80
29321;DHT22;16323;51.130;6.612;2022-10-23T13:30:42;20.60;99.90
29321;DHT22;16323;51.130;6.612;2022-10-23T13:33:19;20.60;99.90
29321;DHT22;16323;51.130;6.612;2022-10-23T13:35:54;20.60;99.90
29321;DHT22;16323;51.130;6.612;2022-10-23T13:38:27;20.60;99.90
29321;DHT22;16323;51.130;6.612;2022-10-23T13:40:55;20.60;99.90
29321;DHT22;16323;51.130;6.612;2022-10-23T13:43:26;20.60;99.90
29321;DHT22;16323;51.130;6.612;2022-10-23T13:45:53;20.60;99.90
29321;DHT22;16323;51.130;6.612;2022-10-23T13:48:20;20.60;99.90
29321;DHT22;16323;51.130;6.612;2022-10-23T13:50:47;20.60;99.90
29321;DHT22;16323;51.130;6.612;2022-10-23T13:53:14;20.60;99.90
29321;DHT22;16323;51.130;6.612;2022-10-23T13:55:43;20.60;99.90
29321;DHT22;16323;51.130;6.612;2022-10-23T13:58:10;20.60;99.90
29321;DHT22;16323;51.130;6.612;2022-10-23T14:00:39;20.60;99.90
29321;DHT22;16323;51.130;6.612;2022-10-23T14:03:07;20.60;99.90
29321;DHT22;16323;51.130;6.612;2022-10-23T14:05:34;20.60;99.90
29321;DHT22;16323;51.130;6.612;2022-10-23T14:08:04;20.60;99.90
29321;DHT22;16323;51.130;6.612;2022-10-23T14:10:31;20.60;99.90
29321;DHT22;16323;51.130;6.612;2022-10-23T14:12:59;20.60;99.90
29321;DHT22;16323;51.130;6.612;2022-10-23T14:15:26;20.60;99.90
29321;DHT22;16323;51.130;6.612;2022-10-23T14:17:54;20.70;99.90
29321;DHT22;16323;51.130;6.612;2022-10-23T14:20:21;20.70;99.90
29321;DHT22;16323;51.130;6.612;2022-10-23T14:22:47;20.70;99.90
29321;DHT22;16323;51.130;6.612;2022-10-23T14:25:14;20.70;99.90
29321;DHT22;16323;51.130;6.612;2022-10-23T14:27:41;20.70;99.90
29321;DHT22;16323;51.130;6.612;2022-10-23T14:30:08;20.60;99.90
29321;DHT22;16323;51.130;6.612;2022-10-23T14:32:35;20.70;99.90
29321;DHT22;16323;51.130;6.612;2022-10-23T14:35:04;20.60;99.90
29321;DHT22;16323;51.130;6.612;2022-10-23T14:37:32;20.60;99.90
29321;DHT22;16323;51.130;6.612;2022-10-23T14:39:59;20.60;99.90
29321;DHT22;16323;51.130;6.612;2022-10-23T14:42:26;20.70;99.90
29321;DHT22;16323;51.130;6.612;2022-10-23T14:44:58;20.60;99.90
29321;DHT22;16323;51.130;6.612;2022-10-23T14:47:25;20.70;99.90
29321;DHT22;16323;51.130;6.612;2022-10-23T14:49:52;20.60;99.90
29321;DHT22;16323;51.130;6.612;2022-10-23T14:52:20;20.70;99.90
29321;DHT22;16323;51.130;6.612;2022-10-23T14:54:46;20.70;99.90
29321;DHT22;16323;51.130;6.612;2022-10-23T14:57:13;20.70;99.90
29321;DHT22;16323;51.130;6.612;2022-10-23T14:59:42;20.70;99.90
29321;DHT22;16323;51.130;6.612;2022-10-23T15:02:09;20.70;99.90
29321;DHT22;16323;51.130;6.612;2022-10-23T15:04:36;20.70;99.90
29321;DHT22;16323;51.130;6.612;2022-10-23T15:07:05;20.70;99.90
29321;DHT22;16323;51.130;6.612;2022-10-23T15:09:33;20.60;99.90
29321;DHT22;16323;51.130;6.612;2022-10-23T15:12:01;20.70;99.90
29321;DHT22;16323;51.130;6.612;2022-10-23T15:14:28;20.70;99.90
29321;DHT22;16323;51.130;6.612;2022-10-23T15:16:54;20.70;99.90
29321;DHT22;16323;51.130;6.612;2022-10-23T15:19:21;20.70;99.90
29321;DHT22;16323;51.130;6.612;2022-10-23T15:21:48;20.70;99.90
29321;DHT22;16323;51.130;6.612;2022-10-23T15:24:16;20.80;99.90
29321;DHT22;16323;51.130;6.612;2022-10-23T15:26:46;20.70;99.90
29321;DHT22;16323;51.130;6.612;2022-10-23T15:29:15;20.70;99.90
29321;DHT22;16323;51.130;6.612;2022-10-23T15:31:44;20.70;99.90
29321;DHT22;16323;51.130;6.612;2022-10-23T15:34:12;20.70;99.90
29321;DHT22;16323;51.130;6.612;2022-10-23T15:36:40;20.70;99.90
29321;DHT22;16323;51.130;6.612;2022-10-23T15:39:08;20.70;99.90
29321;DHT22;16323;51.130;6.612;2022-10-23T15:41:37;20.70;99.90
29321;DHT22;16323;51.130;6.612;2022-10-23T15:44:06;20.70;99.90
29321;DHT22;16323;51.130;6.612;2022-10-23T15:46:33;20.70;99.90
29321;DHT22;16323;51.130;6.612;2022-10-23T15:49:00;20.70;99.90
29321;DHT22;16323;51.130;6.612;2022-10-23T15:51:27;20.70;99.90
29321;DHT22;16323;51.130;6.612;2022-10-23T15:53:54;20.70;99.90
29321;DHT22;16323;51.130;6.612;2022-10-23T15:56:21;20.70;99.90